Time;durP1;ratioP1;P1;durP2;ratioP2;P2;SDS_P1;SDS_P2;PMS_P1;PMS_P2;Temp;Humidity;BMP_temperature;BMP_pressure;BME280_temperature;BME280_humidity;BME280_pressure;Samples;Min_cycle;Max_cycle;Signal;HPM_P1;HPM_P2
2022/06/11 00:00:20;;;;;;;;;;;28.10;99.90;;;;;;4995853;28;20558;-59
2022/06/11 00:02:45;;;;;;;16.25;2.22;;;28.10;99.90;;;;;;5000425;28;19906;-58
2022/06/11 00:05:11;;;;;;;7.03;2.10;;;28.10;99.90;;;;;;4995562;28;20478;-62
2022/06/11 00:07:38;;;;;;;11.13;2.63;;;28.10;99.90;;;;;;4991779;28;20014;-60
2022/06/11 00:10:05;;;;;;;6.78;1.58;;;28.10;99.90;;;;;;4995678;28;20034;-59
2022/06/11 00:12:32;;;;;;;5.18;1.83;;;28.10;99.90;;;;;;5003563;28;20019;-58
2022/06/11 00:14:58;;;;;;;6.30;1.75;;;28.10;99.90;;;;;;4992297;28;20026;-58
2022/06/11 00:17:24;;;;;;;6.68;2.05;;;28.20;99.90;;;;;;4996264;28;20081;-58
2022/06/11 00:19:52;;;;;;;4.65;1.23;;;28.20;99.90;;;;;;4998115;28;20116;-58
2022/06/11 00:22:20;;;;;;;7.28;2.08;;;28.20;99.90;;;;;;4990992;28;20148;-60
2022/06/11 00:24:46;;;;;;;6.85;2.63;;;28.20;99.90;;;;;;4988516;28;20042;-59
2022/06/11 00:27:16;;;;;;;13.40;2.75;;;28.20;99.90;;;;;;4990162;28;20037;-60
2022/06/11 00:29:43;;;;;;;9.50;2.85;;;28.20;99.90;;;;;;4994865;28;20105;-59
2022/06/11 00:32:10;;;;;;;7.55;2.38;;;28.20;99.90;;;;;;4996675;28;20018;-59
2022/06/11 00:34:38;;;;;;;4.30;1.65;;;28.30;99.90;;;;;;4991575;28;20029;-61
2022/06/11 00:37:05;;;;;;;7.38;2.33;;;28.20;99.90;;;;;;4990720;28;20022;-60
2022/06/11 00:39:34;;;;;;;4.60;1.98;;;28.30;99.90;;;;;;4991450;28;20468;-59
2022/06/11 00:42:23;;;;;;;7.65;2.20;;;28.20;99.90;;;;;;4990278;28;20034;-59
2022/06/11 00:45:10;;;;;;;6.03;1.83;;;28.20;99.90;;;;;;4990792;28;20372;-59
2022/06/11 00:47:36;;;;;;;3.08;1.48;;;28.20;99.90;;;;;;4991520;28;20022;-60
2022/06/11 00:50:11;;;;;;;4.82;1.58;;;28.20;99.90;;;;;;4989953;28;20062;-59
2022/06/11 00:52:42;;;;;;;7.72;1.92;;;28.30;99.90;;;;;;4997766;28;20459;-60
2022/06/11 00:55:18;;;;;;;4.15;1.75;;;28.30;99.90;;;;;;4993834;28;20446;-59
2022/06/11 00:57:49;;;;;;;4.28;1.80;;;28.30;99.90;;;;;;4990951;28;20028;-59
2022/06/11 01:00:22;;;;;;;3.80;1.40;;;28.30;99.90;;;;;;5008566;22;20066;-52
2022/06/11 01:02:49;;;;;;;5.05;1.75;;;28.30;99.90;;;;;;4993167;28;20068;-53
2022/06/11 01:05:24;;;;;;;5.30;1.63;;;28.30;99.90;;;;;;4992896;28;20025;-52
2022/06/11 01:08:08;;;;;;;5.18;1.33;;;28.30;99.90;;;;;;4989185;28;20027;-52
2022/06/11 01:11:03;;;;;;;4.85;1.60;;;28.30;99.90;;;;;;4989206;28;20022;-53
2022/06/11 01:13:43;;;;;;;3.63;1.70;;;28.20;99.90;;;;;;4986253;28;20042;-52
2022/06/11 01:16:11;;;;;;;4.60;1.90;;;28.20;99.90;;;;;;4989159;28;20058;-52
2022/06/11 01:18:40;;;;;;;3.25;1.48;;;27.90;99.90;;;;;;5003991;28;20437;-52
2022/06/11 01:21:18;;;;;;;8.35;1.70;;;27.60;99.90;;;;;;4989364;28;20018;-52
2022/06/11 01:24:03;;;;;;;8.68;1.67;;;27.30;99.90;;;;;;4995989;28;20031;-52
2022/06/11 01:26:58;;;;;;;6.63;1.73;;;27.00;99.90;;;;;;4992976;28;20018;-52
2022/06/11 01:29:54;;;;;;;6.38;1.70;;;26.80;99.90;;;;;;4990416;28;20026;-52
2022/06/11 01:32:45;;;;;;;5.72;1.38;;;26.60;99.90;;;;;;5002379;28;20099;-53
2022/06/11 01:35:21;;;;;;;3.90;1.50;;;26.50;99.90;;;;;;4991102;28;20114;-52
2022/06/11 01:37:52;;;;;;;4.40;2.00;;;26.40;99.90;;;;;;4989828;28;20040;-52
2022/06/11 01:40:21;;;;;;;7.55;1.77;;;26.30;99.90;;;;;;4988778;28;20019;-52
2022/06/11 01:42:54;;;;;;;7.80;1.60;;;26.20;99.90;;;;;;4999474;28;20120;-52
2022/06/11 01:45:35;;;;;;;7.80;1.42;;;26.20;99.90;;;;;;4988573;28;20609;-50
2022/06/11 01:48:04;;;;;;;6.57;1.55;;;26.10;99.90;;;;;;5002407;28;20062;-51
2022/06/11 01:50:35;;;;;;;6.75;1.65;;;26.10;99.90;;;;;;4991112;28;20101;-52
2022/06/11 01:53:07;;;;;;;5.90;1.77;;;26.10;99.90;;;;;;4990913;28;20125;-51
2022/06/11 01:55:54;;;;;;;5.20;1.75;;;26.10;99.90;;;;;;4989797;28;20435;-51
2022/06/11 01:59:00;;;;;;;8.10;1.80;;;26.10;99.90;;;;;;4995576;28;20026;-52
2022/06/11 02:02:14;;;;;;;5.05;1.33;;;26.00;99.90;;;;;;5017075;22;20136;-59
2022/06/11 02:04:57;;;;;;;3.30;1.58;;;26.00;99.90;;;;;;4956858;28;20055;-60
2022/06/11 02:07:32;;;;;;;5.90;1.40;;;25.90;99.90;;;;;;4991366;28;20033;-60
2022/06/11 02:10:04;;;;;;;3.95;1.50;;;26.10;99.90;;;;;;4987930;28;20053;-59
2022/06/11 02:12:39;;;;;;;3.65;1.50;;;26.30;99.90;;;;;;4988497;28;20497;-59
2022/06/11 02:15:13;;;;;;;4.55;1.90;;;26.50;99.90;;;;;;4991107;28;20030;-59
2022/06/11 02:17:43;;;;;;;11.82;2.05;;;26.80;99.90;;;;;;4980565;28;20025;-60
2022/06/11 02:20:22;;;;;;;6.13;1.58;;;27.00;99.90;;;;;;4993276;28;20564;-59
2022/06/11 02:22:53;;;;;;;5.00;1.90;;;27.10;99.90;;;;;;4980970;28;20033;-60
2022/06/11 02:25:30;;;;;;;5.10;1.45;;;27.30;99.90;;;;;;4993395;28;20022;-60
2022/06/11 02:28:00;;;;;;;5.40;1.73;;;27.40;99.90;;;;;;4979877;28;20089;-59
2022/06/11 02:30:29;;;;;;;6.05;1.63;;;27.50;99.90;;;;;;4993257;28;20027;-60
2022/06/11 02:32:56;;;;;;;3.08;1.45;;;27.60;99.90;;;;;;4992840;28;20080;-60
2022/06/11 02:36:05;;;;;;;4.40;1.30;;;27.70;99.90;;;;;;4993072;28;20022;-59
2022/06/11 02:38:31;;;;;;;4.45;1.55;;;27.70;99.90;;;;;;4913388;29;20032;-62
2022/06/11 02:41:06;;;;;;;4.97;1.42;;;27.80;99.90;;;;;;4972674;28;20513;-64
2022/06/11 02:43:32;;;;;;;5.50;1.48;;;27.80;99.90;;;;;;4992806;28;20106;-63
2022/06/11 02:45:58;;;;;;;4.85;1.42;;;27.90;99.90;;;;;;4993043;28;20440;-62
2022/06/11 02:48:25;;;;;;;5.57;1.48;;;27.90;99.90;;;;;;4992977;28;20022;-64
2022/06/11 02:50:51;;;;;;;3.00;1.10;;;27.90;99.90;;;;;;4994183;28;20096;-61
2022/06/11 02:53:17;;;;;;;12.18;1.58;;;28.00;99.90;;;;;;4995120;28;20022;-58
2022/06/11 02:55:45;;;;;;;3.22;1.30;;;28.00;99.90;;;;;;4994838;28;20365;-58
2022/06/11 02:58:12;;;;;;;2.40;1.05;;;28.00;99.90;;;;;;4994782;28;20549;-57
2022/06/11 03:00:43;;;;;;;3.90;1.55;;;28.00;99.90;;;;;;4994915;28;20038;-57
2022/06/11 03:03:09;;;;;;;2.53;0.98;;;28.00;99.90;;;;;;4994474;28;20049;-59
2022/06/11 03:05:36;;;;;;;5.63;1.00;;;28.10;99.90;;;;;;4994411;28;20370;-61
2022/06/11 03:08:03;;;;;;;;;;;28.00;99.90;;;;;;4993885;28;20025;-60
2022/06/11 03:10:30;;;;;;;2.97;1.10;;;28.10;99.90;;;;;;4994506;28;19913;-62
2022/06/11 03:12:57;;;;;;;4.03;1.25;;;28.10;99.90;;;;;;4994472;28;20026;-60
2022/06/11 03:15:24;;;;;;;4.35;1.45;;;28.10;99.90;;;;;;4994282;28;20109;-60
2022/06/11 03:17:51;;;;;;;4.57;1.10;;;28.10;99.90;;;;;;4994616;28;20126;-60
2022/06/11 03:20:19;;;;;;;;;;;28.10;99.90;;;;;;4994880;28;20045;-60
2022/06/11 03:22:45;;;;;;;3.55;1.33;;;28.10;99.90;;;;;;4994178;28;19905;-63
2022/06/11 03:25:12;;;;;;;4.15;1.13;;;28.10;99.90;;;;;;4994101;28;21081;-62
2022/06/11 03:27:39;;;;;;;1.98;1.20;;;28.10;99.90;;;;;;4994005;28;20027;-63
2022/06/11 03:30:08;;;;;;;3.10;1.05;;;28.10;99.90;;;;;;4994184;28;20038;-63
2022/06/11 03:32:34;;;;;;;3.92;1.02;;;28.10;99.90;;;;;;4993908;28;20023;-62
2022/06/11 03:35:00;;;;;;;2.28;1.05;;;28.00;99.90;;;;;;4994006;28;20072;-64
2022/06/11 03:37:27;;;;;;;5.13;1.25;;;27.70;99.90;;;;;;4993894;28;20027;-63
2022/06/11 03:39:52;;;;;;;2.83;1.08;;;27.40;99.90;;;;;;4993787;28;20061;-61
2022/06/11 03:42:18;;;;;;;1.67;0.95;;;27.20;99.90;;;;;;4994281;28;20054;-60
2022/06/11 03:44:44;;;;;;;5.80;2.03;;;27.00;99.90;;;;;;4993252;28;20077;-60
2022/06/11 03:47:10;;;;;;;4.93;1.00;;;26.80;99.90;;;;;;4993724;28;20516;-60
2022/06/11 03:49:37;;;;;;;3.85;0.77;;;26.70;99.90;;;;;;4993624;28;20029;-61
2022/06/11 03:52:05;;;;;;;5.60;1.10;;;26.50;99.90;;;;;;4993518;28;20029;-63
2022/06/11 03:54:30;;;;;;;3.40;1.23;;;26.50;99.90;;;;;;4993613;28;20045;-60
2022/06/11 03:56:56;;;;;;;4.57;1.05;;;26.40;99.90;;;;;;4993381;28;20010;-60
2022/06/11 03:59:23;;;;;;;5.53;0.88;;;26.40;99.90;;;;;;4994403;28;20026;-59
2022/06/11 04:01:49;;;;;;;5.00;1.40;;;26.30;99.90;;;;;;4994041;28;20042;-59
2022/06/11 04:04:18;;;;;;;3.03;1.25;;;26.30;99.90;;;;;;4993379;28;20034;-58
2022/06/11 04:06:51;;;;;;;4.32;0.90;;;26.20;99.90;;;;;;4993298;28;20483;-58
2022/06/11 04:09:31;;;;;;;3.63;1.13;;;26.20;99.90;;;;;;4980635;28;20109;-58
2022/06/11 04:11:58;;;;;;;1.83;0.70;;;26.10;99.90;;;;;;4993085;28;20022;-58
2022/06/11 04:14:24;;;;;;;1.83;0.90;;;26.10;99.90;;;;;;4993437;28;20030;-58
2022/06/11 04:16:54;;;;;;;4.70;1.00;;;26.00;99.90;;;;;;4993202;28;20030;-61
2022/06/11 04:19:26;;;;;;;5.95;1.10;;;26.00;99.90;;;;;;4992798;28;20544;-62
2022/06/11 04:21:53;;;;;;;3.38;1.02;;;25.90;99.90;;;;;;4993254;28;20030;-61
2022/06/11 04:24:20;;;;;;;2.92;1.00;;;25.90;99.90;;;;;;4991513;28;20065;-58
2022/06/11 04:26:49;;;;;;;5.57;1.20;;;25.90;99.90;;;;;;4992919;28;20098;-57
2022/06/11 04:29:18;;;;;;;2.45;1.10;;;25.90;99.90;;;;;;4992846;28;20024;-57
2022/06/11 04:31:46;;;;;;;5.70;1.30;;;25.80;99.90;;;;;;4992903;28;20025;-57
2022/06/11 04:34:13;;;;;;;3.72;0.90;;;25.80;99.90;;;;;;4992744;28;20037;-57
2022/06/11 04:36:41;;;;;;;5.18;1.70;;;25.80;99.90;;;;;;4992955;28;20057;-57
2022/06/11 04:39:08;;;;;;;6.15;1.85;;;25.80;99.90;;;;;;4992956;28;20069;-57
2022/06/11 04:41:35;;;;;;;5.30;1.60;;;25.80;99.90;;;;;;4992669;28;20061;-57
2022/06/11 04:44:02;;;;;;;3.67;1.30;;;25.80;99.90;;;;;;4992544;28;20035;-57
2022/06/11 04:46:28;;;;;;;6.22;1.85;;;25.80;99.90;;;;;;4991327;28;20431;-57
2022/06/11 04:48:53;;;;;;;4.07;1.15;;;25.70;99.90;;;;;;4992884;28;20054;-58
2022/06/11 04:51:20;;;;;;;3.97;1.55;;;25.70;99.90;;;;;;4992664;28;20390;-59
2022/06/11 04:53:48;;;;;;;8.47;1.47;;;25.70;99.90;;;;;;4992490;28;20026;-61
2022/06/11 04:56:17;;;;;;;6.68;1.45;;;25.70;99.90;;;;;;4992407;28;20033;-57
2022/06/11 04:58:44;;;;;;;5.85;1.38;;;25.70;99.90;;;;;;4990975;28;20050;-60
2022/06/11 05:01:10;;;;;;;4.77;1.00;;;25.70;99.90;;;;;;4991112;28;20066;-59
2022/06/11 05:03:37;;;;;;;8.98;2.35;;;25.70;99.90;;;;;;4992237;28;20070;-64
2022/06/11 05:06:03;;;;;;;3.95;1.23;;;25.70;99.90;;;;;;4992316;28;20508;-60
2022/06/11 05:08:29;;;;;;;3.97;1.40;;;25.70;99.90;;;;;;4992085;28;20030;-57
2022/06/11 05:10:55;;;;;;;8.52;1.40;;;25.70;99.90;;;;;;4992474;28;20500;-58
2022/06/11 05:13:20;;;;;;;6.10;1.35;;;25.70;99.90;;;;;;4992087;28;20103;-57
2022/06/11 05:15:51;;;;;;;3.30;0.93;;;25.70;99.90;;;;;;4990580;28;20030;-61
2022/06/11 05:18:18;;;;;;;2.80;1.20;;;25.70;99.90;;;;;;4992060;28;20035;-58
2022/06/11 05:20:44;;;;;;;7.90;1.25;;;25.70;99.90;;;;;;4991914;28;20397;-55
2022/06/11 05:23:12;;;;;;;2.88;0.93;;;25.80;99.90;;;;;;4992024;28;20088;-56
2022/06/11 05:25:39;;;;;;;4.15;1.55;;;25.80;99.90;;;;;;4991759;28;20054;-59
2022/06/11 05:28:08;;;;;;;3.22;1.45;;;25.80;99.90;;;;;;4992021;28;20097;-61
2022/06/11 05:30:35;;;;;;;5.55;1.45;;;25.80;99.90;;;;;;4991139;28;20126;-58
2022/06/11 05:33:01;;;;;;;5.90;1.25;;;25.80;99.90;;;;;;4991572;28;20052;-58
2022/06/11 05:35:30;;;;;;;2.05;0.73;;;25.80;99.90;;;;;;4992193;28;20036;-59
2022/06/11 05:37:58;;;;;;;6.38;1.33;;;25.80;99.90;;;;;;4991990;28;20033;-58
2022/06/11 05:40:28;;;;;;;6.38;1.38;;;25.80;99.90;;;;;;4991859;28;20030;-58
2022/06/11 05:42:54;;;;;;;3.42;1.08;;;25.80;99.90;;;;;;4991740;28;20019;-58
2022/06/11 05:45:33;;;;;;;3.78;0.70;;;25.80;99.90;;;;;;4991787;28;20063;-58
2022/06/11 05:48:00;;;;;;;10.07;1.60;;;25.80;99.90;;;;;;4991984;28;20052;-57
2022/06/11 05:50:31;;;;;;;5.63;1.30;;;25.80;99.90;;;;;;4991717;28;20046;-54
2022/06/11 05:52:58;;;;;;;3.10;0.90;;;26.00;99.90;;;;;;4991974;28;20118;-53
2022/06/11 05:55:27;;;;;;;6.20;1.05;;;26.10;99.90;;;;;;4991522;28;20110;-56
2022/06/11 05:57:54;;;;;;;1.63;0.85;;;26.20;99.90;;;;;;4990471;28;20093;-56
2022/06/11 06:00:23;;;;;;;4.38;1.30;;;26.30;99.90;;;;;;4991291;28;20070;-55
2022/06/11 06:02:49;;;;;;;5.22;1.30;;;26.30;99.90;;;;;;4991641;28;20029;-57
2022/06/11 06:05:21;;;;;;;4.65;2.10;;;26.30;99.90;;;;;;4991374;28;20474;-57
2022/06/11 06:07:46;;;;;;;5.10;1.45;;;26.40;99.90;;;;;;4991417;28;20113;-59
2022/06/11 06:10:13;;;;;;;8.55;1.58;;;26.40;99.90;;;;;;4991348;28;20117;-57
2022/06/11 06:12:39;;;;;;;6.53;2.10;;;26.40;99.90;;;;;;4991468;28;20018;-60
2022/06/11 06:15:11;;;;;;;4.97;1.17;;;26.50;99.90;;;;;;4991531;28;20106;-54
2022/06/11 06:17:38;;;;;;;4.57;2.00;;;26.50;99.90;;;;;;4991225;28;20102;-52
2022/06/11 06:20:06;;;;;;;8.98;2.40;;;26.50;99.90;;;;;;4991540;28;20474;-55
2022/06/11 06:22:32;;;;;;;12.88;2.10;;;26.60;99.90;;;;;;4991806;28;20382;-61
2022/06/11 06:24:58;;;;;;;7.13;2.83;;;26.60;99.90;;;;;;4991509;28;20367;-56
2022/06/11 06:27:24;;;;;;;8.90;2.63;;;26.60;99.90;;;;;;4991257;28;20030;-59
2022/06/11 06:29:50;;;;;;;10.88;5.30;;;26.70;99.90;;;;;;4991422;28;20078;-57
2022/06/11 06:32:16;;;;;;;17.45;3.78;;;26.70;99.90;;;;;;4991169;28;20027;-55
2022/06/11 06:34:41;;;;;;;7.68;2.92;;;26.80;99.90;;;;;;4991231;28;20038;-55
2022/06/11 06:37:08;;;;;;;14.85;2.95;;;26.80;99.90;;;;;;4991289;28;20491;-53
2022/06/11 06:39:33;;;;;;;7.82;3.28;;;26.80;99.90;;;;;;4991364;28;20058;-53
2022/06/11 06:41:59;;;;;;;6.72;3.80;;;26.90;99.90;;;;;;4992543;28;20026;-53
2022/06/11 06:44:25;;;;;;;5.88;2.22;;;26.90;99.90;;;;;;4994742;28;20060;-57
2022/06/11 06:46:51;;;;;;;14.60;3.08;;;26.90;99.90;;;;;;4994976;28;20513;-58
2022/06/11 06:49:17;;;;;;;7.72;2.22;;;26.90;99.90;;;;;;4994806;28;20355;-57
2022/06/11 06:51:43;;;;;;;7.70;2.80;;;27.00;99.90;;;;;;4994622;28;20026;-54
2022/06/11 06:54:09;;;;;;;7.47;2.60;;;27.00;99.90;;;;;;4994683;28;20026;-55
2022/06/11 06:56:35;;;;;;;7.28;2.25;;;27.00;99.90;;;;;;4994616;28;20031;-55
2022/06/11 06:59:01;;;;;;;7.70;2.55;;;27.10;99.90;;;;;;4994725;28;20117;-54
2022/06/11 07:01:29;;;;;;;5.25;1.70;;;27.20;99.90;;;;;;4994542;28;20413;-55
2022/06/11 07:03:55;;;;;;;4.25;2.28;;;27.20;99.90;;;;;;4994400;28;20044;-53
2022/06/11 07:06:22;;;;;;;9.73;2.80;;;27.20;99.90;;;;;;4994455;28;20033;-55
2022/06/11 07:08:52;;;;;;;5.88;1.42;;;27.20;99.90;;;;;;4994187;28;20030;-54
2022/06/11 07:11:19;;;;;;;7.57;2.00;;;27.30;99.90;;;;;;4994338;28;20033;-57
2022/06/11 07:13:45;;;;;;;5.22;2.92;;;27.30;99.90;;;;;;4994133;28;20401;-60
2022/06/11 07:16:19;;;;;;;9.07;2.95;;;27.30;99.90;;;;;;4993103;28;20519;-62
2022/06/11 07:19:01;;;;;;;9.32;2.65;;;27.40;99.90;;;;;;4994033;28;20078;-59
2022/06/11 07:22:00;;;;;;;5.93;1.80;;;27.40;99.90;;;;;;4994080;28;20038;-58
2022/06/11 07:24:29;;;;;;;4.32;2.00;;;27.40;99.90;;;;;;4993943;28;20398;-57
2022/06/11 07:26:58;;;;;;;9.13;3.05;;;27.50;99.90;;;;;;4993927;28;20022;-56
2022/06/11 07:29:29;;;;;;;6.70;3.05;;;27.50;99.90;;;;;;4993900;28;20022;-56
2022/06/11 07:32:01;;;;;;;7.80;3.50;;;27.50;99.90;;;;;;4994005;28;20044;-55
2022/06/11 07:34:28;;;;;;;9.60;4.32;;;27.50;99.90;;;;;;4993432;28;20045;-54
2022/06/11 07:36:56;;;;;;;12.47;3.57;;;27.50;99.90;;;;;;4993821;28;20031;-55
2022/06/11 07:39:22;;;;;;;5.68;2.05;;;27.50;99.90;;;;;;4993754;28;20030;-53
2022/06/11 07:41:48;;;;;;;2.88;1.63;;;27.60;99.90;;;;;;4993656;28;20033;-55
2022/06/11 07:44:13;;;;;;;8.68;3.42;;;27.60;99.90;;;;;;4993531;28;20038;-55
2022/06/11 07:46:39;;;;;;;3.58;2.33;;;27.60;99.90;;;;;;4993665;28;20054;-58
2022/06/11 07:49:05;;;;;;;5.95;3.20;;;27.60;99.90;;;;;;4993779;28;20026;-57
2022/06/11 07:51:31;;;;;;;9.80;4.50;;;27.60;99.90;;;;;;4993396;28;20026;-57
2022/06/11 07:53:57;;;;;;;7.00;4.05;;;27.70;99.90;;;;;;4992876;28;20037;-56
2022/06/11 07:56:22;;;;;;;4.47;2.50;;;27.70;99.90;;;;;;4993369;28;20019;-57
2022/06/11 07:58:52;;;;;;;6.10;2.33;;;27.70;99.90;;;;;;4993219;28;20166;-57
2022/06/11 08:01:19;;;;;;;7.45;2.60;;;27.70;99.90;;;;;;4993188;28;20038;-59
2022/06/11 08:03:44;;;;;;;4.13;2.10;;;27.70;99.90;;;;;;4993167;28;20030;-61
2022/06/11 08:06:12;;;;;;;6.07;3.10;;;27.80;99.90;;;;;;4993407;28;20139;-60
2022/06/11 08:08:38;;;;;;;6.43;1.90;;;27.70;99.90;;;;;;4993261;28;20107;-60
2022/06/11 08:11:05;;;;;;;4.05;2.25;;;27.80;99.90;;;;;;4993128;28;20522;-60
2022/06/11 08:13:31;;;;;;;;;;;27.80;99.90;;;;;;4993717;28;20026;-60
2022/06/11 08:15:58;;;;;;;4.95;1.50;;;27.90;99.90;;;;;;4991764;28;19917;-60
2022/06/11 08:18:25;;;;;;;5.70;1.88;;;27.80;99.90;;;;;;4993245;28;20078;-61
2022/06/11 08:20:51;;;;;;;4.13;3.40;;;27.90;99.90;;;;;;4992749;28;20041;-62
2022/06/11 08:23:18;;;;;;;19.02;8.88;;;27.90;99.90;;;;;;4992872;28;20030;-59
2022/06/11 08:25:44;;;;;;;4.68;2.25;;;27.90;99.90;;;;;;4992793;28;20034;-61
2022/06/11 08:28:13;;;;;;;13.27;7.53;;;27.90;99.90;;;;;;4993087;28;20023;-60
2022/06/11 08:30:40;;;;;;;8.70;3.65;;;28.00;99.90;;;;;;4992901;28;20018;-59
2022/06/11 08:33:06;;;;;;;6.33;3.47;;;28.00;99.90;;;;;;4992788;28;20097;-59
2022/06/11 08:35:33;;;;;;;6.57;3.47;;;28.00;99.90;;;;;;4992914;28;20114;-59
2022/06/11 08:37:59;;;;;;;;;;;28.00;99.90;;;;;;4993131;28;20386;-60
2022/06/11 08:40:35;;;;;;;9.43;2.83;;;28.00;99.90;;;;;;4992634;28;19906;-60
2022/06/11 08:43:29;;;;;;;5.72;3.35;;;28.10;99.90;;;;;;4992511;28;20214;-60
2022/06/11 08:46:12;;;;;;;5.95;2.42;;;28.10;99.90;;;;;;4992651;28;20035;-60
2022/06/11 08:48:42;;;;;;;11.07;3.45;;;28.00;99.90;;;;;;4992610;28;20089;-58
2022/06/11 08:51:15;;;;;;;2.38;1.35;;;28.10;99.90;;;;;;4992629;28;20085;-58
2022/06/11 08:53:41;;;;;;;4.05;1.20;;;28.00;99.90;;;;;;4989020;28;20049;-58
2022/06/11 08:56:19;;;;;;;7.80;2.15;;;28.00;99.90;;;;;;4990811;28;20498;-57
2022/06/11 08:59:02;;;;;;;10.98;3.33;;;28.00;99.90;;;;;;4991855;28;20109;-54
2022/06/11 09:01:47;;;;;;;13.95;8.18;;;28.00;99.90;;;;;;4989669;28;20057;-53
2022/06/11 09:04:29;;;;;;;8.13;1.55;;;28.00;99.90;;;;;;4978725;28;20038;-59
2022/06/11 09:07:17;;;;;;;3.92;2.17;;;28.00;99.90;;;;;;4991518;28;20038;-57
2022/06/11 09:10:13;;;;;;;6.63;3.15;;;28.00;99.90;;;;;;4992211;28;20377;-51
2022/06/11 09:13:02;;;;;;;12.05;2.10;;;28.00;99.90;;;;;;4992383;28;20113;-58
2022/06/11 09:15:27;;;;;;;8.90;2.40;;;28.00;99.90;;;;;;4990936;28;20058;-60
2022/06/11 09:18:25;;;;;;;4.68;1.10;;;28.00;99.90;;;;;;4989938;28;20080;-60
2022/06/11 09:21:09;;;;;;;6.72;1.85;;;27.90;99.90;;;;;;4966730;28;20056;-61
2022/06/11 09:24:01;;;;;;;6.65;1.35;;;27.90;99.90;;;;;;4990086;28;20121;-61
2022/06/11 09:26:53;;;;;;;6.22;1.83;;;27.70;99.90;;;;;;4983949;28;20030;-61
2022/06/11 09:29:27;;;;;;;3.58;1.20;;;27.70;99.90;;;;;;4991453;28;20498;-59
2022/06/11 09:32:12;;;;;;;6.00;1.50;;;27.50;99.90;;;;;;4989151;28;20035;-58
2022/06/11 09:34:44;;;;;;;6.05;1.50;;;27.40;99.90;;;;;;4991510;28;20505;-59
2022/06/11 09:37:17;;;;;;;5.50;1.30;;;27.40;99.90;;;;;;4991985;28;20042;-58
2022/06/11 09:39:51;;;;;;;7.97;2.20;;;27.30;99.90;;;;;;4991777;28;20026;-57
2022/06/11 09:42:46;;;;;;;6.18;2.22;;;27.20;99.90;;;;;;4989370;28;20109;-63
2022/06/11 09:45:27;;;;;;;6.80;1.52;;;27.20;99.90;;;;;;4972089;28;20050;-55
2022/06/11 09:48:13;;;;;;;9.52;3.50;;;27.00;99.90;;;;;;4990300;28;20022;-60
2022/06/11 09:51:02;;;;;;;6.45;3.13;;;27.00;99.90;;;;;;4986723;28;20019;-57
2022/06/11 09:53:53;;;;;;;8.35;4.55;;;27.00;99.90;;;;;;4990480;28;20087;-57
2022/06/11 09:56:41;;;;;;;10.63;5.10;;;27.00;99.90;;;;;;4991336;28;20018;-59
2022/06/11 09:59:30;;;;;;;17.60;12.25;;;27.00;99.90;;;;;;4985891;28;20022;-59
2022/06/11 10:02:17;;;;;;;22.02;14.23;;;27.10;99.90;;;;;;4990894;28;20109;-57
2022/06/11 10:04:46;;;;;;;12.63;6.25;;;27.10;99.90;;;;;;4990106;28;20121;-59
2022/06/11 10:07:19;;;;;;;6.75;3.40;;;27.10;99.90;;;;;;4991300;28;20030;-59
2022/06/11 10:10:14;;;;;;;5.05;1.48;;;27.10;99.90;;;;;;4991294;28;20031;-56
2022/06/11 10:12:46;;;;;;;8.93;1.85;;;27.20;99.90;;;;;;4980721;28;20105;-58
2022/06/11 10:15:25;;;;;;;6.28;1.92;;;27.20;99.90;;;;;;4984691;28;20022;-58
2022/06/11 10:18:25;;;;;;;4.95;1.77;;;27.20;99.90;;;;;;4992023;28;20040;-60
2022/06/11 10:20:56;;;;;;;5.82;1.98;;;27.20;99.90;;;;;;4992983;28;20018;-56
2022/06/11 10:23:41;;;;;;;8.30;1.20;;;27.30;99.90;;;;;;4991996;28;20026;-58
2022/06/11 10:26:28;;;;;;;9.07;3.20;;;27.40;99.90;;;;;;4992991;28;20061;-57
2022/06/11 10:29:15;;;;;;;8.15;2.08;;;27.50;99.90;;;;;;4993273;28;20413;-55
2022/06/11 10:31:58;;;;;;;15.07;7.60;;;27.60;99.90;;;;;;4994101;28;20019;-56
2022/06/11 10:34:26;;;;;;;6.80;1.42;;;27.60;99.90;;;;;;4993625;28;20030;-56
2022/06/11 10:37:07;;;;;;;5.93;1.80;;;27.70;99.90;;;;;;4994790;28;20105;-57
2022/06/11 10:39:43;;;;;;;5.63;1.48;;;27.70;99.90;;;;;;4994768;28;20053;-57
2022/06/11 10:42:17;;;;;;;5.13;1.17;;;27.80;99.90;;;;;;4994761;28;20037;-57
2022/06/11 10:44:53;;;;;;;8.02;1.40;;;27.90;99.90;;;;;;4994478;28;20501;-58
2022/06/11 10:47:22;;;;;;;5.93;1.75;;;27.80;99.90;;;;;;4995032;28;20101;-58
2022/06/11 10:50:01;;;;;;;7.65;1.80;;;27.90;99.90;;;;;;4994851;28;20038;-55
2022/06/11 10:52:59;;;;;;;3.83;1.30;;;27.90;99.90;;;;;;4994668;28;20010;-58
2022/06/11 10:55:59;;;;;;;6.85;1.13;;;28.00;99.90;;;;;;4963291;28;20089;-60
2022/06/11 10:58:37;;;;;;;8.38;1.33;;;28.10;99.90;;;;;;4994501;28;20030;-59
2022/06/11 11:01:12;;;;;;;6.25;1.63;;;28.20;99.90;;;;;;4990147;28;20085;-58
2022/06/11 11:03:56;;;;;;;3.60;0.88;;;28.30;99.90;;;;;;4991379;28;20054;-58
2022/06/11 11:06:29;;;;;;;9.45;1.02;;;28.30;99.90;;;;;;4990991;28;20088;-58
2022/06/11 11:09:02;;;;;;;2.75;1.10;;;28.30;99.90;;;;;;4979992;28;20117;-60
2022/06/11 11:11:32;;;;;;;8.30;1.42;;;28.30;99.90;;;;;;4988837;28;20102;-62
2022/06/11 11:14:21;;;;;;;6.55;1.27;;;28.40;99.90;;;;;;4986281;28;20030;-58
2022/06/11 11:16:52;;;;;;;4.30;0.80;;;28.30;99.90;;;;;;4985126;28;20356;-55
2022/06/11 11:19:24;;;;;;;4.95;1.02;;;28.30;99.90;;;;;;4980124;28;20019;-57
2022/06/11 11:22:07;;;;;;;3.28;0.80;;;28.30;99.90;;;;;;4974485;28;20411;-57
2022/06/11 11:24:50;;;;;;;7.53;2.92;;;28.30;99.90;;;;;;4974202;28;20043;-57
2022/06/11 11:27:28;;;;;;;2.78;0.77;;;28.40;99.90;;;;;;4974924;28;20093;-56
2022/06/11 11:30:10;;;;;;;3.10;1.00;;;28.50;99.90;;;;;;4973487;28;20027;-54
2022/06/11 11:32:37;;;;;;;6.75;2.45;;;28.60;99.90;;;;;;4989101;28;20451;-60
2022/06/11 11:35:26;;;;;;;4.72;1.67;;;28.60;99.90;;;;;;4977131;28;20035;-60
2022/06/11 11:37:58;;;;;;;6.70;1.90;;;28.60;99.90;;;;;;4988093;28;20402;-58
2022/06/11 11:40:34;;;;;;;5.95;2.53;;;28.60;99.90;;;;;;4984295;28;20125;-60
2022/06/11 11:43:10;;;;;;;2.33;0.73;;;28.60;99.90;;;;;;4988363;28;20096;-61
2022/06/11 11:45:48;;;;;;;7.43;1.42;;;28.60;99.90;;;;;;4993419;28;20058;-56
2022/06/11 11:48:24;;;;;;;11.48;4.03;;;28.60;99.90;;;;;;4984166;28;20073;-61
2022/06/11 11:51:05;;;;;;;5.33;1.63;;;28.60;99.90;;;;;;4993633;28;20478;-57
2022/06/11 11:53:50;;;;;;;4.97;2.33;;;28.60;99.90;;;;;;4988104;28;20038;-63
2022/06/11 11:56:24;;;;;;;7.18;1.83;;;28.60;99.90;;;;;;4991918;28;20025;-64
2022/06/11 11:58:54;;;;;;;7.25;3.72;;;28.60;99.90;;;;;;4988386;28;20113;-62
2022/06/11 12:01:22;;;;;;;6.05;2.55;;;28.70;99.90;;;;;;4987995;28;20105;-62
2022/06/11 12:04:12;;;;;;;6.50;2.13;;;28.80;99.90;;;;;;4992995;28;20097;-61
2022/06/11 12:06:45;;;;;;;5.53;1.25;;;28.90;99.90;;;;;;4992724;28;20053;-61
2022/06/11 12:09:23;;;;;;;8.77;1.35;;;29.00;99.90;;;;;;4988074;28;20022;-63
2022/06/11 12:12:17;;;;;;;;;;;29.00;99.90;;;;;;4980242;28;20037;-63
2022/06/11 12:14:58;;;;;;;7.82;2.97;;;29.00;99.90;;;;;;4971050;28;19945;-63
2022/06/11 12:17:39;;;;;;;4.97;1.75;;;29.00;99.90;;;;;;4991152;28;20046;-63
2022/06/11 12:20:27;;;;;;;8.30;2.50;;;28.90;99.90;;;;;;4990693;28;20051;-60
2022/06/11 12:23:19;;;;;;;5.68;1.83;;;28.90;99.90;;;;;;4980148;28;20042;-65
2022/06/11 12:25:53;;;;;;;4.47;1.02;;;28.90;99.90;;;;;;4989508;28;20073;-63
2022/06/11 12:28:24;;;;;;;3.92;1.60;;;28.90;99.90;;;;;;4988801;28;20101;-64
2022/06/11 12:30:51;;;;;;;6.95;2.45;;;29.00;99.90;;;;;;4988915;28;20025;-65
2022/06/11 12:33:18;;;;;;;4.45;1.35;;;29.10;99.90;;;;;;4984041;28;20110;-65
2022/06/11 12:36:07;;;;;;;7.80;1.15;;;29.10;99.90;;;;;;4973100;28;20026;-58
2022/06/11 12:38:37;;;;;;;6.18;1.80;;;29.10;99.90;;;;;;4986362;28;20023;-65
2022/06/11 12:41:05;;;;;;;24.92;2.53;;;29.10;99.90;;;;;;4985147;28;20026;-60
2022/06/11 12:43:44;;;;;;;5.45;1.23;;;29.20;99.90;;;;;;4992381;28;20037;-59
2022/06/11 12:46:26;;;;;;;4.65;1.20;;;29.10;99.90;;;;;;4979969;28;20085;-58
2022/06/11 12:49:06;;;;;;;5.78;1.05;;;29.10;99.90;;;;;;4979618;28;20026;-53
2022/06/11 12:51:53;;;;;;;6.00;1.77;;;29.20;99.90;;;;;;4991376;28;20026;-60
2022/06/11 12:54:46;;;;;;;7.20;1.15;;;29.20;99.90;;;;;;4982359;28;20023;-61
2022/06/11 12:57:38;;;;;;;6.18;1.08;;;29.30;99.90;;;;;;4990446;28;20037;-61
2022/06/11 13:00:03;;;;;;;7.28;1.13;;;29.30;99.90;;;;;;4990672;28;20038;-61
2022/06/11 13:02:51;;;;;;;4.50;1.05;;;29.30;99.90;;;;;;4979840;28;20027;-59
2022/06/11 13:06:10;;;;;;;6.88;2.03;;;29.20;99.90;;;;;;4991757;28;20045;-60
2022/06/11 13:08:44;;;;;;;7.25;1.50;;;29.30;99.90;;;;;;4931710;29;20499;-61
2022/06/11 13:11:47;;;;;;;8.98;2.20;;;29.10;99.90;;;;;;4990114;28;20044;-54
2022/06/11 13:14:40;;;;;;;8.88;3.55;;;29.10;99.90;;;;;;4978435;28;20482;-57
2022/06/11 13:17:44;;;;;;;4.78;1.30;;;29.20;99.90;;;;;;4987644;28;20055;-54
2022/06/11 13:20:21;;;;;;;5.25;1.77;;;29.10;99.90;;;;;;4946224;28;20034;-56